Time;durP1;ratioP1;P1;durP2;ratioP2;P2;SDS_P1;SDS_P2;PMS_P1;PMS_P2;Temp;Humidity;BMP_temperature;BMP_pressure;BME280_temperature;BME280_humidity;BME280_pressure;Samples;Min_cycle;Max_cycle;Signal;HPM_P1;HPM_P2
2023/08/11 00:01:10;;;;;;;45.67;8.07;;;;;;;;;;5072337;28;20021;-49
2023/08/11 00:03:37;;;;;;;42.05;7.07;;;;;;;;;;5071644;28;20289;-43
2023/08/11 00:06:07;;;;;;;44.58;7.07;;;;;;;;;;5073658;28;20055;-45
2023/08/11 00:08:36;;;;;;;36.72;8.02;;;;;;;;;;5072842;28;20487;-42
2023/08/11 00:11:03;;;;;;;56.05;8.25;;;;;;;;;;5072888;28;20040;-43
2023/08/11 00:13:31;;;;;;;47.03;7.80;;;;;;;;;;5072388;28;20031;-44
2023/08/11 00:15:58;;;;;;;38.60;7.55;;;;;;;;;;5073136;28;20103;-43
2023/08/11 00:18:25;;;;;;;39.80;7.22;;;;;;;;;;5073320;28;20428;-42
2023/08/11 00:20:51;;;;;;;42.08;7.82;;;;;;;;;;5071804;28;20394;-44
2023/08/11 00:23:18;;;;;;;51.88;7.88;;;;;;;;;;5073072;28;20107;-43
2023/08/11 00:25:45;;;;;;;43.78;7.18;;;;;;;;;;5072343;28;20048;-46
2023/08/11 00:28:12;;;;;;;45.60;7.72;;;;;;;;;;5072177;28;20423;-42
2023/08/11 00:30:39;;;;;;;51.47;7.88;;;;;;;;;;5071753;28;20048;-46
2023/08/11 00:33:06;;;;;;;38.95;7.22;;;;;;;;;;5046959;28;20081;-49
2023/08/11 00:35:33;;;;;;;45.58;7.80;;;;;;;;;;5072454;28;20031;-47
2023/08/11 00:38:01;;;;;;;34.67;7.90;;;;;;;;;;5072524;28;20035;-46
2023/08/11 00:40:28;;;;;;;37.75;7.45;;;;;;;;;;5072739;28;20381;-42
2023/08/11 00:42:56;;;;;;;46.75;8.98;;;;;;;;;;5072389;28;20041;-47
2023/08/11 00:45:23;;;;;;;38.75;8.32;;;;;;;;;;5072711;28;20059;-46
2023/08/11 00:47:51;;;;;;;46.63;8.50;;;;;;;;;;5072220;28;20544;-45
2023/08/11 00:50:18;;;;;;;49.28;10.13;;;;;;;;;;5070382;28;20122;-43
2023/08/11 00:52:45;;;;;;;49.17;10.85;;;;;;;;;;5072763;28;20033;-48
2023/08/11 00:55:13;;;;;;;47.83;10.90;;;;;;;;;;5072455;28;20097;-46
2023/08/11 00:57:41;;;;;;;59.30;13.45;;;;;;;;;;5072508;28;20029;-47
2023/08/11 01:00:12;;;;;;;59.58;13.27;;;;;;;;;;5072228;28;20024;-48
2023/08/11 01:02:43;;;;;;;51.20;13.00;;;;;;;;;;5072205;28;20764;-47
2023/08/11 01:05:11;;;;;;;52.58;12.52;;;;;;;;;;5072532;28;20493;-45
2023/08/11 01:07:41;;;;;;;62.22;14.70;;;;;;;;;;5072032;28;20035;-45
2023/08/11 01:10:19;;;;;;;48.45;12.23;;;;;;;;;;5070944;28;20059;-48
2023/08/11 01:13:06;;;;;;;51.67;12.18;;;;;;;;;;5070852;28;20495;-45
2023/08/11 01:15:40;;;;;;;50.35;12.60;;;;;;;;;;5071639;28;20037;-47
2023/08/11 01:18:08;;;;;;;48.03;12.30;;;;;;;;;;5071788;28;20031;-42
2023/08/11 01:20:36;;;;;;;52.97;12.35;;;;;;;;;;5071995;28;20024;-44
2023/08/11 01:23:04;;;;;;;46.15;11.02;;;;;;;;;;5071374;28;20024;-44
2023/08/11 01:25:31;;;;;;;45.90;11.95;;;;;;;;;;5071459;28;20855;-47
2023/08/11 01:28:00;;;;;;;47.47;11.40;;;;;;;;;;5072044;28;20031;-47
2023/08/11 01:30:33;;;;;;;54.47;12.15;;;;;;;;;;5039437;28;20044;-47
2023/08/11 01:33:01;;;;;;;43.50;11.25;;;;;;;;;;5051884;28;20090;-45
2023/08/11 01:35:28;;;;;;;50.35;10.90;;;;;;;;;;5052111;28;20029;-43
2023/08/11 01:37:55;;;;;;;44.55;10.52;;;;;;;;;;5053632;28;20047;-44
2023/08/11 01:40:22;;;;;;;40.28;10.88;;;;;;;;;;5054607;28;20395;-44
2023/08/11 01:42:49;;;;;;;42.33;9.98;;;;;;;;;;5051234;28;20032;-45
2023/08/11 01:45:16;;;;;;;38.58;10.13;;;;;;;;;;5043627;28;20395;-45
2023/08/11 01:47:45;;;;;;;47.22;10.10;;;;;;;;;;5036409;28;20026;-45
2023/08/11 01:50:13;;;;;;;42.15;10.00;;;;;;;;;;5044164;28;20055;-44
2023/08/11 01:52:42;;;;;;;41.35;9.98;;;;;;;;;;5050726;28;20475;-46
2023/08/11 01:55:10;;;;;;;38.65;9.90;;;;;;;;;;5050591;28;20033;-43
2023/08/11 01:57:39;;;;;;;35.78;8.93;;;;;;;;;;5044078;28;20492;-43
2023/08/11 02:00:12;;;;;;;38.13;9.18;;;;;;;;;;5034701;28;20009;-48
2023/08/11 02:02:40;;;;;;;40.38;8.95;;;;;;;;;;5059719;28;20130;-47
2023/08/11 02:05:08;;;;;;;35.28;9.43;;;;;;;;;;5060490;28;20482;-48
2023/08/11 02:07:36;;;;;;;43.00;9.32;;;;;;;;;;5052071;28;20068;-46
2023/08/11 02:10:03;;;;;;;36.05;8.85;;;;;;;;;;5048906;28;20079;-44
2023/08/11 02:12:31;;;;;;;28.95;8.18;;;;;;;;;;5050357;28;20387;-46
2023/08/11 02:14:58;;;;;;;33.17;8.13;;;;;;;;;;5057211;28;20487;-45
2023/08/11 02:17:25;;;;;;;32.33;8.35;;;;;;;;;;5049670;28;20043;-44
2023/08/11 02:19:53;;;;;;;33.55;8.68;;;;;;;;;;5050542;28;20057;-48
2023/08/11 02:22:20;;;;;;;31.05;8.07;;;;;;;;;;5049740;28;20549;-44
2023/08/11 02:24:47;;;;;;;33.42;8.10;;;;;;;;;;5051295;28;20076;-44
2023/08/11 02:27:14;;;;;;;27.23;7.95;;;;;;;;;;5051367;28;20446;-48
2023/08/11 02:29:41;;;;;;;30.50;7.80;;;;;;;;;;5051263;28;20029;-46
2023/08/11 02:32:08;;;;;;;29.33;7.72;;;;;;;;;;5051324;28;20047;-48
2023/08/11 02:34:36;;;;;;;27.50;7.35;;;;;;;;;;5051466;28;20104;-49
2023/08/11 02:37:02;;;;;;;25.17;7.25;;;;;;;;;;5051377;28;20032;-44
2023/08/11 02:39:29;;;;;;;27.27;7.55;;;;;;;;;;5051287;28;20025;-47
2023/08/11 02:41:56;;;;;;;25.40;6.25;;;;;;;;;;5051352;28;20613;-43
2023/08/11 02:44:24;;;;;;;26.48;7.45;;;;;;;;;;5051296;28;20167;-44
2023/08/11 02:46:51;;;;;;;22.17;6.40;;;;;;;;;;5051336;28;20040;-47
2023/08/11 02:49:18;;;;;;;26.20;7.10;;;;;;;;;;5051323;28;20029;-43
2023/08/11 02:51:46;;;;;;;25.30;6.88;;;;;;;;;;5051174;28;20033;-48
2023/08/11 02:54:13;;;;;;;25.20;6.32;;;;;;;;;;5051236;28;20036;-42
2023/08/11 02:56:46;;;;;;;19.10;6.03;;;;;;;;;;5051194;28;20025;-49
2023/08/11 02:59:13;;;;;;;22.75;6.95;;;;;;;;;;5053179;28;20025;-50
2023/08/11 03:01:40;;;;;;;26.15;6.47;;;;;;;;;;5055107;28;20040;-44
2023/08/11 03:04:07;;;;;;;19.20;5.88;;;;;;;;;;5055062;28;20031;-50
2023/08/11 03:06:34;;;;;;;18.75;5.88;;;;;;;;;;5054981;28;20036;-45
2023/08/11 03:09:02;;;;;;;23.30;6.22;;;;;;;;;;5054828;28;20060;-44
2023/08/11 03:11:29;;;;;;;21.08;6.05;;;;;;;;;;5054894;28;20486;-48
2023/08/11 03:13:56;;;;;;;20.65;5.95;;;;;;;;;;5054930;28;20108;-49
2023/08/11 03:16:25;;;;;;;16.33;5.82;;;;;;;;;;5054929;28;20029;-46
2023/08/11 03:18:52;;;;;;;16.15;5.55;;;;;;;;;;5054601;28;20061;-46
2023/08/11 03:21:20;;;;;;;22.92;5.53;;;;;;;;;;5054623;28;20107;-44
2023/08/11 03:23:47;;;;;;;24.85;5.65;;;;;;;;;;5054780;28;20028;-45
2023/08/11 03:26:14;;;;;;;25.02;5.38;;;;;;;;;;5054525;28;20072;-47
2023/08/11 03:28:41;;;;;;;23.73;5.00;;;;;;;;;;5054564;28;20030;-46
2023/08/11 03:31:08;;;;;;;20.42;5.47;;;;;;;;;;5054503;28;20037;-46
2023/08/11 03:33:35;;;;;;;16.30;4.20;;;;;;;;;;5054558;28;20051;-48
2023/08/11 03:36:02;;;;;;;23.50;5.25;;;;;;;;;;5054520;28;20096;-48
2023/08/11 03:38:29;;;;;;;19.60;4.85;;;;;;;;;;5054454;28;20060;-46
2023/08/11 03:40:56;;;;;;;14.90;4.20;;;;;;;;;;5054429;28;20065;-46
2023/08/11 03:43:24;;;;;;;16.02;4.22;;;;;;;;;;5054353;28;20025;-41
2023/08/11 03:45:51;;;;;;;18.65;4.90;;;;;;;;;;5054296;28;20112;-42
2023/08/11 03:48:18;;;;;;;18.17;4.75;;;;;;;;;;5054222;28;20037;-46
2023/08/11 03:50:45;;;;;;;14.52;3.80;;;;;;;;;;5053862;28;20048;-48
2023/08/11 03:53:12;;;;;;;18.88;4.07;;;;;;;;;;5054207;28;20025;-46
2023/08/11 03:55:40;;;;;;;19.58;4.38;;;;;;;;;;5054175;28;20106;-42
2023/08/11 03:58:07;;;;;;;17.40;4.13;;;;;;;;;;5054107;28;20021;-46
2023/08/11 04:00:35;;;;;;;18.42;4.05;;;;;;;;;;5053908;28;20056;-46
2023/08/11 04:03:03;;;;;;;16.00;3.42;;;;;;;;;;5053891;28;20025;-44
2023/08/11 04:05:30;;;;;;;17.52;4.22;;;;;;;;;;5053809;28;20040;-46
2023/08/11 04:07:57;;;;;;;11.30;3.90;;;;;;;;;;5053874;28;20033;-48
2023/08/11 04:10:24;;;;;;;17.35;4.10;;;;;;;;;;5053158;28;20052;-49
2023/08/11 04:12:51;;;;;;;12.35;3.45;;;;;;;;;;5053826;28;20028;-46
2023/08/11 04:15:18;;;;;;;12.90;3.50;;;;;;;;;;5053746;28;20029;-45
2023/08/11 04:17:45;;;;;;;10.10;3.10;;;;;;;;;;5053687;28;20059;-45
2023/08/11 04:20:16;;;;;;;14.77;3.63;;;;;;;;;;5053565;28;20040;-47
2023/08/11 04:22:43;;;;;;;13.38;3.60;;;;;;;;;;5053429;28;20041;-42
2023/08/11 04:25:11;;;;;;;10.13;2.78;;;;;;;;;;5053337;28;20049;-42
2023/08/11 04:27:39;;;;;;;13.68;3.33;;;;;;;;;;5053544;28;20048;-42
2023/08/11 04:30:06;;;;;;;12.63;2.75;;;;;;;;;;5053333;28;20445;-45
2023/08/11 04:32:33;;;;;;;15.18;3.53;;;;;;;;;;5053516;28;20025;-42
2023/08/11 04:35:00;;;;;;;12.82;3.50;;;;;;;;;;5053380;28;20036;-42
2023/08/11 04:37:27;;;;;;;8.93;2.80;;;;;;;;;;5053273;28;20487;-42
2023/08/11 04:39:54;;;;;;;10.98;2.90;;;;;;;;;;5051881;28;20560;-42
2023/08/11 04:42:21;;;;;;;8.77;3.20;;;;;;;;;;5053249;28;20060;-42
2023/08/11 04:44:48;;;;;;;11.88;3.47;;;;;;;;;;5053091;28;20025;-42
2023/08/11 04:47:15;;;;;;;9.93;2.72;;;;;;;;;;5053223;28;20037;-45
2023/08/11 04:49:43;;;;;;;8.82;3.00;;;;;;;;;;5052946;28;20044;-45
2023/08/11 04:52:10;;;;;;;12.82;3.17;;;;;;;;;;5052977;28;20032;-48
2023/08/11 04:54:37;;;;;;;12.45;2.50;;;;;;;;;;5053050;28;20040;-47
2023/08/11 04:57:04;;;;;;;11.40;2.47;;;;;;;;;;5053409;28;20029;-45
2023/08/11 04:59:31;;;;;;;11.65;2.80;;;;;;;;;;5051693;28;20441;-48
2023/08/11 05:01:59;;;;;;;6.80;2.47;;;;;;;;;;5052775;28;20021;-48
2023/08/11 05:04:26;;;;;;;7.07;2.65;;;;;;;;;;5052895;28;20098;-42
2023/08/11 05:06:53;;;;;;;6.57;2.42;;;;;;;;;;5052820;28;20051;-44
2023/08/11 05:09:20;;;;;;;8.20;2.33;;;;;;;;;;5052681;28;20025;-49
2023/08/11 05:11:47;;;;;;;9.23;2.33;;;;;;;;;;5051330;28;20033;-46
2023/08/11 05:14:17;;;;;;;9.23;2.25;;;;;;;;;;5052659;28;20045;-45
2023/08/11 05:16:45;;;;;;;9.38;2.17;;;;;;;;;;5051231;28;20029;-44
2023/08/11 05:19:15;;;;;;;10.68;2.25;;;;;;;;;;5052506;28;20029;-45
2023/08/11 05:21:42;;;;;;;10.30;2.53;;;;;;;;;;5051659;28;20594;-43
2023/08/11 05:24:12;;;;;;;6.85;2.22;;;;;;;;;;5051181;28;20497;-46
2023/08/11 05:26:39;;;;;;;6.75;1.90;;;;;;;;;;5052238;28;20518;-45
2023/08/11 05:29:06;;;;;;;6.90;1.98;;;;;;;;;;5052284;28;20037;-47
2023/08/11 05:31:33;;;;;;;6.50;2.00;;;;;;;;;;5052376;28;20037;-46
2023/08/11 05:34:00;;;;;;;11.32;1.75;;;;;;;;;;5052313;28;20029;-45
2023/08/11 05:36:27;;;;;;;7.20;1.80;;;;;;;;;;5052272;28;20094;-43
2023/08/11 05:38:54;;;;;;;7.30;1.65;;;;;;;;;;5052095;28;20024;-46
2023/08/11 05:41:21;;;;;;;9.55;2.05;;;;;;;;;;5052227;28;20029;-45
2023/08/11 05:43:48;;;;;;;7.05;2.05;;;;;;;;;;5052101;28;20095;-47
2023/08/11 05:46:15;;;;;;;6.68;1.80;;;;;;;;;;5052095;28;20028;-46
2023/08/11 05:48:47;;;;;;;7.65;1.70;;;;;;;;;;5051874;28;20048;-46
2023/08/11 05:51:14;;;;;;;;;;;;;;;;;;5052363;28;20040;-45
2023/08/11 05:53:41;;;;;;;7.03;1.67;;;;;;;;;;5052013;28;19913;-45
2023/08/11 05:56:08;;;;;;;6.95;1.70;;;;;;;;;;5051889;28;20079;-44
2023/08/11 05:58:36;;;;;;;7.65;1.95;;;;;;;;;;5051775;28;20025;-47
2023/08/11 06:01:02;;;;;;;6.28;1.77;;;;;;;;;;5050645;28;20060;-42
2023/08/11 06:03:33;;;;;;;7.55;1.50;;;;;;;;;;5051705;28;20040;-47
2023/08/11 06:06:00;;;;;;;7.13;1.63;;;;;;;;;;5051702;28;20387;-43
2023/08/11 06:08:28;;;;;;;7.15;1.63;;;;;;;;;;5051579;28;20037;-42
2023/08/11 06:10:55;;;;;;;6.15;1.40;;;;;;;;;;5051666;28;20035;-42
2023/08/11 06:13:23;;;;;;;5.63;1.48;;;;;;;;;;5051706;28;20025;-42
2023/08/11 06:15:53;;;;;;;6.13;1.70;;;;;;;;;;5051670;28;20123;-42
2023/08/11 06:18:20;;;;;;;6.80;1.50;;;;;;;;;;5051550;28;20032;-42
2023/08/11 06:20:47;;;;;;;7.25;1.42;;;;;;;;;;5051693;28;20509;-42
2023/08/11 06:23:14;;;;;;;5.30;1.30;;;;;;;;;;5051588;28;20757;-48
2023/08/11 06:25:41;;;;;;;8.77;1.65;;;;;;;;;;5051339;28;20129;-44
2023/08/11 06:28:08;;;;;;;6.35;1.40;;;;;;;;;;5051421;28;20065;-42
2023/08/11 06:30:35;;;;;;;6.80;1.35;;;;;;;;;;5051372;28;20029;-42
2023/08/11 06:33:03;;;;;;;5.43;1.30;;;;;;;;;;5054820;28;20063;-45
2023/08/11 06:35:30;;;;;;;5.05;1.20;;;;;;;;;;5060314;28;20033;-44
2023/08/11 06:37:59;;;;;;;10.27;1.50;;;;;;;;;;5057982;28;20044;-48
2023/08/11 06:40:26;;;;;;;7.38;1.25;;;;;;;;;;5058062;28;20033;-42
2023/08/11 06:42:53;;;;;;;5.18;1.52;;;;;;;;;;5058019;28;20048;-48
2023/08/11 06:45:20;;;;;;;7.18;1.20;;;;;;;;;;5058258;28;20456;-43
2023/08/11 06:47:47;;;;;;;4.47;1.20;;;;;;;;;;5058042;28;20141;-43
2023/08/11 06:50:14;;;;;;;8.27;1.10;;;;;;;;;;5057856;28;20603;-42
2023/08/11 06:52:41;;;;;;;3.95;1.20;;;;;;;;;;5057955;28;20041;-47
2023/08/11 06:55:08;;;;;;;4.57;1.13;;;;;;;;;;5057880;28;20043;-42
2023/08/11 06:57:37;;;;;;;9.40;1.40;;;;;;;;;;5057935;28;20033;-43
2023/08/11 07:00:07;;;;;;;10.27;1.23;;;;;;;;;;5057714;28;20557;-47
2023/08/11 07:02:34;;;;;;;7.18;1.30;;;;;;;;;;5057870;28;20395;-48
2023/08/11 07:05:02;;;;;;;4.07;1.00;;;;;;;;;;5057739;28;20029;-44
2023/08/11 07:07:29;;;;;;;6.53;0.90;;;;;;;;;;5057775;28;20029;-43
2023/08/11 07:09:56;;;;;;;8.30;1.05;;;;;;;;;;5057764;28;20052;-43
2023/08/11 07:12:23;;;;;;;5.25;1.00;;;;;;;;;;5057749;28;20029;-46
2023/08/11 07:14:51;;;;;;;3.25;0.70;;;;;;;;;;5057690;28;20049;-42
2023/08/11 07:17:18;;;;;;;7.03;1.15;;;;;;;;;;5057769;28;20044;-43
2023/08/11 07:19:45;;;;;;;5.03;1.10;;;;;;;;;;5057620;28;20108;-45
2023/08/11 07:22:12;;;;;;;5.38;1.10;;;;;;;;;;5057663;28;20029;-46
2023/08/11 07:24:39;;;;;;;7.00;1.40;;;;;;;;;;5057476;28;20120;-41
2023/08/11 07:27:06;;;;;;;6.25;0.80;;;;;;;;;;5057662;28;20032;-44
2023/08/11 07:29:33;;;;;;;4.63;1.00;;;;;;;;;;5057600;28;20025;-45
2023/08/11 07:32:00;;;;;;;3.38;0.90;;;;;;;;;;5057519;28;20120;-42
2023/08/11 07:34:27;;;;;;;1.27;0.60;;;;;;;;;;5057447;28;20024;-43
2023/08/11 07:36:54;;;;;;;4.28;0.85;;;;;;;;;;5057588;28;20021;-42
2023/08/11 07:39:22;;;;;;;5.95;1.00;;;;;;;;;;5057393;28;20083;-44
2023/08/11 07:41:49;;;;;;;5.53;0.90;;;;;;;;;;5057507;28;20068;-46
2023/08/11 07:44:16;;;;;;;4.80;1.00;;;;;;;;;;5055462;28;20037;-42
2023/08/11 07:46:43;;;;;;;4.68;1.05;;;;;;;;;;5054326;28;20392;-43
2023/08/11 07:49:10;;;;;;;4.70;1.00;;;;;;;;;;5054242;28;20033;-47
2023/08/11 07:51:39;;;;;;;7.32;0.80;;;;;;;;;;5054265;28;20399;-42
2023/08/11 07:54:06;;;;;;;4.10;0.88;;;;;;;;;;5054065;28;20570;-43
2023/08/11 07:56:33;;;;;;;3.22;1.02;;;;;;;;;;5054171;28;20048;-44
2023/08/11 07:59:00;;;;;;;5.93;0.88;;;;;;;;;;5053909;28;20037;-47
2023/08/11 08:01:27;;;;;;;8.98;0.68;;;;;;;;;;5053970;28;20068;-45
2023/08/11 08:03:55;;;;;;;3.63;0.90;;;;;;;;;;5054078;28;20498;-44
2023/08/11 08:06:22;;;;;;;5.55;1.02;;;;;;;;;;5054054;28;20028;-46
2023/08/11 08:08:49;;;;;;;6.10;0.80;;;;;;;;;;5053893;28;20029;-47
2023/08/11 08:11:16;;;;;;;13.75;0.90;;;;;;;;;;5053923;28;20029;-45
2023/08/11 08:13:43;;;;;;;11.93;1.10;;;;;;;;;;5053873;28;20368;-48
2023/08/11 08:16:10;;;;;;;10.70;1.27;;;;;;;;;;5053667;28;20792;-46
2023/08/11 08:18:37;;;;;;;17.15;1.40;;;;;;;;;;5053683;28;20029;-46
2023/08/11 08:21:04;;;;;;;17.60;1.50;;;;;;;;;;5053752;28;20398;-43
2023/08/11 08:23:31;;;;;;;19.52;1.60;;;;;;;;;;5053658;28;20044;-43
2023/08/11 08:25:58;;;;;;;15.20;1.67;;;;;;;;;;5053403;28;20078;-48
2023/08/11 08:28:25;;;;;;;21.65;1.63;;;;;;;;;;5053484;28;20032;-42
2023/08/11 08:30:53;;;;;;;28.50;1.73;;;;;;;;;;5053448;28;20043;-43
2023/08/11 08:33:20;;;;;;;30.30;1.90;;;;;;;;;;5052163;28;20429;-48
2023/08/11 08:35:47;;;;;;;27.52;1.85;;;;;;;;;;5053455;28;20102;-46
2023/08/11 08:38:14;;;;;;;35.20;2.10;;;;;;;;;;5053213;28;20382;-46
2023/08/11 08:40:41;;;;;;;23.80;1.95;;;;;;;;;;5053546;28;20422;-42
2023/08/11 08:43:08;;;;;;;22.42;2.33;;;;;;;;;;5053321;28;20040;-45
2023/08/11 08:45:36;;;;;;;120.38;4.85;;;;;;;;;;5053230;28;20032;-47
2023/08/11 08:48:06;;;;;;;55.95;3.25;;;;;;;;;;5053150;28;20032;-46
2023/08/11 08:50:33;;;;;;;53.40;3.80;;;;;;;;;;5052887;28;20041;-43
2023/08/11 08:53:01;;;;;;;48.75;3.92;;;;;;;;;;5051910;28;20146;-42
2023/08/11 08:55:28;;;;;;;41.88;3.40;;;;;;;;;;5052510;28;20040;-45
2023/08/11 08:57:56;;;;;;;48.97;3.47;;;;;;;;;;5052363;28;20021;-43
2023/08/11 09:00:23;;;;;;;55.13;3.95;;;;;;;;;;5053020;28;20033;-45
2023/08/11 09:02:50;;;;;;;55.58;3.90;;;;;;;;;;5052893;28;20095;-46
2023/08/11 09:05:17;;;;;;;53.05;3.75;;;;;;;;;;5061491;28;20036;-44
2023/08/11 09:07:44;;;;;;;49.97;3.85;;;;;;;;;;5071442;28;20036;-43
2023/08/11 09:10:11;;;;;;;52.28;3.53;;;;;;;;;;5072621;28;20086;-46
2023/08/11 09:12:39;;;;;;;45.10;3.30;;;;;;;;;;5070612;28;20039;-43
2023/08/11 09:15:10;;;;;;;51.17;3.10;;;;;;;;;;5052584;28;20455;-45
2023/08/11 09:17:40;;;;;;;50.67;3.30;;;;;;;;;;5052618;28;20051;-44
2023/08/11 09:20:09;;;;;;;67.63;4.00;;;;;;;;;;5057400;28;20039;-44
2023/08/11 09:22:38;;;;;;;67.75;4.45;;;;;;;;;;5060024;28;20156;-43
2023/08/11 09:25:06;;;;;;;261.67;13.07;;;;;;;;;;5062502;28;20076;-44
2023/08/11 09:27:33;;;;;;;125.05;6.50;;;;;;;;;;5061606;28;20115;-45
2023/08/11 09:30:00;;;;;;;100.38;6.60;;;;;;;;;;5060638;28;20059;-44
2023/08/11 09:32:27;;;;;;;85.28;5.60;;;;;;;;;;5058071;28;20131;-42
2023/08/11 09:34:54;;;;;;;68.78;6.03;;;;;;;;;;5061599;28;20053;-46
2023/08/11 09:37:21;;;;;;;103.05;6.13;;;;;;;;;;5062469;28;20028;-42
2023/08/11 09:39:50;;;;;;;55.30;4.53;;;;;;;;;;5049637;28;20032;-45
2023/08/11 09:42:19;;;;;;;82.22;5.53;;;;;;;;;;5051717;28;20032;-45
2023/08/11 09:44:46;;;;;;;81.35;5.22;;;;;;;;;;5051565;28;20415;-43
2023/08/11 09:47:13;;;;;;;44.03;4.40;;;;;;;;;;5051976;28;20033;-44
2023/08/11 09:49:41;;;;;;;128.10;7.53;;;;;;;;;;5050757;28;20029;-44
2023/08/11 09:52:08;;;;;;;89.85;5.88;;;;;;;;;;5051809;28;20411;-44
2023/08/11 09:54:36;;;;;;;70.28;5.07;;;;;;;;;;5051939;28;20025;-49
2023/08/11 09:57:04;;;;;;;81.70;5.50;;;;;;;;;;5051841;28;20033;-48
2023/08/11 09:59:31;;;;;;;72.20;5.63;;;;;;;;;;5051771;28;20569;-45
2023/08/11 10:02:00;;;;;;;74.00;5.20;;;;;;;;;;5051884;28;20118;-46
2023/08/11 10:04:27;;;;;;;66.70;5.68;;;;;;;;;;5051878;28;20024;-45
2023/08/11 10:06:57;;;;;;;67.55;5.90;;;;;;;;;;5051151;28;20029;-48
2023/08/11 10:09:24;;;;;;;57.30;5.32;;;;;;;;;;5051651;28;20425;-47
2023/08/11 10:11:52;;;;;;;70.30;5.65;;;;;;;;;;5051632;28;20069;-48
2023/08/11 10:14:20;;;;;;;68.93;5.47;;;;;;;;;;5049940;28;20047;-48
2023/08/11 10:16:48;;;;;;;77.40;5.85;;;;;;;;;;5044085;28;20037;-45
2023/08/11 10:19:15;;;;;;;58.58;4.80;;;;;;;;;;5051071;28;20040;-43
2023/08/11 10:21:42;;;;;;;63.15;4.93;;;;;;;;;;5050100;28;20040;-45
2023/08/11 10:24:09;;;;;;;62.97;6.20;;;;;;;;;;5050457;28;20033;-43
2023/08/11 10:26:36;;;;;;;114.95;7.60;;;;;;;;;;5049723;28;20044;-45
2023/08/11 10:29:03;;;;;;;70.57;5.90;;;;;;;;;;5050451;28;20041;-46
2023/08/11 10:31:33;;;;;;;82.75;6.63;;;;;;;;;;5049835;28;20536;-51
2023/08/11 10:34:06;;;;;;;85.03;6.13;;;;;;;;;;5051407;28;20031;-46
2023/08/11 10:36:32;;;;;;;;;;;;;;;;;;5051517;28;20041;-45
2023/08/11 10:39:00;;;;;;;104.78;7.47;;;;;;;;;;5048396;28;20345;-45
2023/08/11 10:41:28;;;;;;;72.43;5.95;;;;;;;;;;5051212;28;20048;-44
2023/08/11 10:43:56;;;;;;;62.28;6.25;;;;;;;;;;5049856;28;20043;-50
2023/08/11 10:46:24;;;;;;;203.20;12.13;;;;;;;;;;5050984;28;20083;-50
2023/08/11 10:48:52;;;;;;;88.35;6.68;;;;;;;;;;5048716;28;20036;-42
2023/08/11 10:51:25;;;;;;;94.82;6.35;;;;;;;;;;5049639;28;20041;-44
2023/08/11 10:53:52;;;;;;;88.70;6.53;;;;;;;;;;5049953;28;20017;-47
2023/08/11 10:56:28;;;;;;;69.35;6.10;;;;;;;;;;5049857;28;20029;-49
2023/08/11 10:59:05;;;;;;;86.85;6.72;;;;;;;;;;5046684;28;20497;-47
2023/08/11 11:01:34;;;;;;;94.75;6.15;;;;;;;;;;5050704;28;20029;-47
2023/08/11 11:04:01;;;;;;;80.93;6.10;;;;;;;;;;5051031;28;20029;-48
2023/08/11 11:06:29;;;;;;;96.13;7.03;;;;;;;;;;5050910;28;20115;-49
2023/08/11 11:08:56;;;;;;;80.25;6.68;;;;;;;;;;5049651;28;20033;-47
2023/08/11 11:11:23;;;;;;;98.50;6.78;;;;;;;;;;5048980;28;20037;-44
2023/08/11 11:13:51;;;;;;;151.02;8.52;;;;;;;;;;5050603;28;20021;-46
2023/08/11 11:16:19;;;;;;;175.52;10.60;;;;;;;;;;5049984;28;20036;-39
2023/08/11 11:18:49;;;;;;;147.80;8.60;;;;;;;;;;5049601;28;20059;-42
2023/08/11 11:21:18;;;;;;;362.75;30.90;;;;;;;;;;5052598;28;20021;-38
2023/08/11 11:23:54;;;;;;;238.77;18.95;;;;;;;;;;5054387;28;20032;-38
2023/08/11 11:26:22;;;;;;;142.63;11.30;;;;;;;;;;5053353;28;20076;-37
2023/08/11 11:28:49;;;;;;;150.65;12.15;;;;;;;;;;5053562;28;20483;-37
2023/08/11 11:31:17;;;;;;;160.38;14.38;;;;;;;;;;5052333;28;20052;-38
2023/08/11 11:33:44;;;;;;;155.73;12.80;;;;;;;;;;5053584;28;20490;-39
2023/08/11 11:36:11;;;;;;;158.40;13.80;;;;;;;;;;5053860;28;20475;-39
2023/08/11 11:38:38;;;;;;;315.27;25.08;;;;;;;;;;5054087;28;20513;-43
2023/08/11 11:41:05;;;;;;;254.07;20.45;;;;;;;;;;5052998;28;20033;-40
2023/08/11 11:43:32;;;;;;;294.02;21.80;;;;;;;;;;5050995;28;20029;-40
2023/08/11 11:45:59;;;;;;;209.48;17.70;;;;;;;;;;5051992;28;20037;-40
2023/08/11 11:48:26;;;;;;;245.43;19.80;;;;;;;;;;5053743;28;20040;-39
2023/08/11 11:50:54;;;;;;;230.27;19.80;;;;;;;;;;5053762;28;20044;-40
2023/08/11 11:53:23;;;;;;;236.15;19.85;;;;;;;;;;5053603;28;20033;-39
2023/08/11 11:55:52;;;;;;;218.85;21.88;;;;;;;;;;5053626;28;20052;-40
2023/08/11 11:58:19;;;;;;;287.30;25.13;;;;;;;;;;5053828;28;20024;-40
2023/08/11 12:00:46;;;;;;;375.33;26.02;;;;;;;;;;5053888;28;20490;-38
2023/08/11 12:03:13;;;;;;;357.77;26.27;;;;;;;;;;5053524;28;20033;-37
2023/08/11 12:05:41;;;;;;;553.78;37.20;;;;;;;;;;5053763;28;20102;-37
2023/08/11 12:08:18;;;;;;;413.38;28.02;;;;;;;;;;5053513;28;20552;-38
2023/08/11 12:10:48;;;;;;;304.13;23.63;;;;;;;;;;5053682;28;20100;-38
2023/08/11 12:13:15;;;;;;;341.67;26.58;;;;;;;;;;5053087;28;20021;-38
2023/08/11 12:15:43;;;;;;;336.83;25.02;;;;;;;;;;5053425;28;20021;-38
2023/08/11 12:18:12;;;;;;;263.13;21.92;;;;;;;;;;5053559;28;20035;-38
2023/08/11 12:20:38;;;;;;;218.50;19.27;;;;;;;;;;5053040;28;20510;-38
2023/08/11 12:23:06;;;;;;;231.07;20.48;;;;;;;;;;5052790;28;20083;-38
2023/08/11 12:25:33;;;;;;;244.80;20.35;;;;;;;;;;5052902;28;20037;-38
2023/08/11 12:28:02;;;;;;;195.27;17.58;;;;;;;;;;5053279;28;20502;-39
2023/08/11 12:30:30;;;;;;;123.55;12.57;;;;;;;;;;5052736;28;20033;-40
2023/08/11 12:32:57;;;;;;;166.95;14.27;;;;;;;;;;5052366;28;20036;-41
2023/08/11 12:35:25;;;;;;;147.70;13.38;;;;;;;;;;5052773;28;20074;-38
2023/08/11 12:37:52;;;;;;;136.82;13.07;;;;;;;;;;5052559;28;20029;-40
2023/08/11 12:40:21;;;;;;;161.68;14.38;;;;;;;;;;5052770;28;20368;-41
2023/08/11 12:42:48;;;;;;;169.27;13.82;;;;;;;;;;5052635;28;20497;-40
2023/08/11 12:45:15;;;;;;;150.65;12.20;;;;;;;;;;5053072;28;20430;-43
2023/08/11 12:47:42;;;;;;;161.63;13.27;;;;;;;;;;5053039;28;20765;-39
2023/08/11 12:50:09;;;;;;;128.52;12.18;;;;;;;;;;5052450;28;20056;-40
2023/08/11 12:52:36;;;;;;;138.90;12.65;;;;;;;;;;5052524;28;20029;-40
2023/08/11 12:55:03;;;;;;;138.35;12.63;;;;;;;;;;5052254;28;20025;-41
2023/08/11 12:57:30;;;;;;;173.93;13.48;;;;;;;;;;5051332;28;20151;-39
2023/08/11 12:59:57;;;;;;;222.80;15.40;;;;;;;;;;5051921;28;20021;-41
2023/08/11 13:02:24;;;;;;;184.18;12.27;;;;;;;;;;5069760;28;20032;-40
2023/08/11 13:04:51;;;;;;;148.10;11.43;;;;;;;;;;5072102;28;20425;-40
2023/08/11 13:07:19;;;;;;;128.77;11.23;;;;;;;;;;5059765;28;20398;-41
2023/08/11 13:09:46;;;;;;;131.10;10.95;;;;;;;;;;5071467;28;20040;-40
2023/08/11 13:12:13;;;;;;;183.82;13.80;;;;;;;;;;5062451;28;20036;-41
2023/08/11 13:14:43;;;;;;;121.25;10.85;;;;;;;;;;5071795;28;20090;-38
2023/08/11 13:17:10;;;;;;;187.50;12.90;;;;;;;;;;5065112;28;20431;-37
2023/08/11 13:19:37;;;;;;;131.40;12.00;;;;;;;;;;5072081;28;20024;-38
2023/08/11 13:22:05;;;;;;;114.53;10.30;;;;;;;;;;5056101;28;20039;-38
2023/08/11 13:24:33;;;;;;;124.05;11.65;;;;;;;;;;5060973;28;20028;-38
2023/08/11 13:27:00;;;;;;;169.07;11.77;;;;;;;;;;5059962;28;20495;-38
2023/08/11 13:29:27;;;;;;;121.93;11.23;;;;;;;;;;5071492;28;20394;-37
2023/08/11 13:31:54;;;;;;;99.70;9.13;;;;;;;;;;5061386;28;20052;-40
2023/08/11 13:34:21;;;;;;;119.00;9.90;;;;;;;;;;5071699;28;20086;-39
2023/08/11 13:36:49;;;;;;;114.97;10.48;;;;;;;;;;5061020;28;20036;-39
2023/08/11 13:39:16;;;;;;;138.15;11.60;;;;;;;;;;5070241;28;20056;-40
2023/08/11 13:41:43;;;;;;;114.68;10.23;;;;;;;;;;5063547;28;20040;-39
2023/08/11 13:44:13;;;;;;;109.10;10.30;;;;;;;;;;5071074;28;20111;-38
2023/08/11 13:46:40;;;;;;;103.82;9.80;;;;;;;;;;5061257;28;20024;-39
2023/08/11 13:49:08;;;;;;;107.45;10.85;;;;;;;;;;5071254;28;20093;-38
2023/08/11 13:51:35;;;;;;;117.72;10.73;;;;;;;;;;5066791;28;20032;-38
2023/08/11 13:54:05;;;;;;;105.10;8.82;;;;;;;;;;5071497;28;20090;-38
2023/08/11 13:56:33;;;;;;;98.72;9.32;;;;;;;;;;5068286;28;20068;-38
2023/08/11 13:59:03;;;;;;;84.07;8.85;;;;;;;;;;5071220;28;20045;-40
2023/08/11 14:01:31;;;;;;;105.50;9.75;;;;;;;;;;5070508;28;20390;-39
2023/08/11 14:03:58;;;;;;;94.43;8.02;;;;;;;;;;5070259;28;20036;-38
2023/08/11 14:06:25;;;;;;;126.35;9.95;;;;;;;;;;5051823;28;20083;-38
2023/08/11 14:08:51;;;;;;;119.75;9.82;;;;;;;;;;5065869;28;20028;-39
2023/08/11 14:11:22;;;;;;;90.82;8.98;;;;;;;;;;5065242;28;20040;-39
2023/08/11 14:13:50;;;;;;;115.22;9.05;;;;;;;;;;5061513;28;20042;-38
2023/08/11 14:16:17;;;;;;;142.80;11.18;;;;;;;;;;5065675;28;20039;-40
2023/08/11 14:18:44;;;;;;;108.18;11.35;;;;;;;;;;5068840;28;20120;-39
2023/08/11 14:21:12;;;;;;;118.00;10.82;;;;;;;;;;5066480;28;20443;-39
2023/08/11 14:23:40;;;;;;;106.38;9.43;;;;;;;;;;5067564;28;20020;-38
2023/08/11 14:26:07;;;;;;;99.18;8.82;;;;;;;;;;5066068;28;20439;-39
2023/08/11 14:28:34;;;;;;;93.03;8.50;;;;;;;;;;5066887;28;20494;-38